createdAt,value
2019-04-23T00:00:13.609Z,35.78
2019-04-23T00:03:08.569Z,35.55
2019-04-23T00:06:00.099Z,36.04
2019-04-23T00:08:50.127Z,36.00
2019-04-23T00:11:35.112Z,35.79
2019-04-23T00:14:29.870Z,36.49
2019-04-23T00:17:17.920Z,36.74
2019-04-23T00:20:04.561Z,37.01
2019-04-23T00:23:10.942Z,36.81
2019-04-23T00:26:17.776Z,37.64
2019-04-23T00:29:15.014Z,36.06
2019-04-23T00:31:53.282Z,36.53
2019-04-23T00:34:49.637Z,35.68
2019-04-23T00:37:31.347Z,35.20
2019-04-23T00:40:21.793Z,35.03
2019-04-23T00:43:17.362Z,36.19
2019-04-23T00:45:54.554Z,37.32
2019-04-23T00:48:59.161Z,37.81
2019-04-23T00:51:38.326Z,38.20
2019-04-23T00:54:30.767Z,37.75
2019-04-23T00:57:24.520Z,37.89
2019-04-23T01:00:19.272Z,37.99
2019-04-23T01:03:01.751Z,37.42
2019-04-23T01:05:47.062Z,37.66
2019-04-23T01:08:36.745Z,37.37
2019-04-23T01:11:27.652Z,37.89
2019-04-23T01:14:16.239Z,38.21
2019-04-23T01:17:08.485Z,38.36
2019-04-23T01:19:58.022Z,38.69
2019-04-23T01:22:29.390Z,38.70
2019-04-23T01:25:39.394Z,38.27
2019-04-23T01:28:42.422Z,37.33
2019-04-23T01:31:33.179Z,37.26
2019-04-23T01:34:28.012Z,37.36
2019-04-23T01:37:15.515Z,37.14
2019-04-23T01:45:31.580Z,36.27
2019-04-23T01:48:26.119Z,36.30
2019-04-23T01:51:20.455Z,36.72
2019-04-23T01:54:06.559Z,37.08
2019-04-23T01:56:56.660Z,37.64
2019-04-23T01:59:53.141Z,37.82
2019-04-23T02:02:46.082Z,38.00
2019-04-23T02:05:27.521Z,37.91
2019-04-23T02:08:13.959Z,37.79
2019-04-23T02:11:00.364Z,37.83
2019-04-23T02:13:54.770Z,37.86
2019-04-23T02:16:47.824Z,39.02
2019-04-23T02:19:38.748Z,38.05
2019-04-23T02:22:46.368Z,38.09
2019-04-23T02:25:39.623Z,38.49
2019-04-23T02:28:24.280Z,40.04
2019-04-23T02:31:25.281Z,41.50
2019-04-23T02:34:00.509Z,42.04
2019-04-23T02:45:16.880Z,44.41
2019-04-23T02:48:19.748Z,43.50
2019-04-23T02:50:57.819Z,43.15
2019-04-23T02:54:00.600Z,43.71
2019-04-23T02:59:42.349Z,44.83
2019-04-23T03:05:04.468Z,44.90
2019-04-23T03:08:10.208Z,45.25
2019-04-23T03:10:59.902Z,45.30
2019-04-23T03:19:58.839Z,45.41
2019-04-23T03:23:20.312Z,44.54
2019-04-23T03:26:11.149Z,43.57
2019-04-23T03:43:06.511Z,44.71
2019-04-23T03:46:00.898Z,44.79
2019-04-23T03:48:41.753Z,45.05
2019-04-23T03:51:31.367Z,44.62
2019-04-23T03:54:28.406Z,45.39
2019-04-23T03:57:15.532Z,45.19
2019-04-23T04:00:13.165Z,44.96
2019-04-23T04:05:37.179Z,45.67
2019-04-23T04:14:12.131Z,43.11
2019-04-23T04:16:49.162Z,43.74
2019-04-23T04:19:44.849Z,43.56
2019-04-23T04:22:37.392Z,43.75
2019-04-23T04:25:26.041Z,43.38
2019-04-23T04:39:26.522Z,42.79
2019-04-23T04:42:12.432Z,42.91
2019-04-23T04:45:16.737Z,43.19
2019-04-23T04:47:45.621Z,43.40
2019-04-23T04:51:00.410Z,44.17
2019-04-23T04:56:30.295Z,44.77
2019-04-23T04:59:08.768Z,44.53
2019-04-23T05:02:09.799Z,43.63
2019-04-23T05:10:41.339Z,44.78
2019-04-23T05:13:33.776Z,43.49
2019-04-23T05:27:28.942Z,42.09
2019-04-23T05:33:11.853Z,43.33
2019-04-23T05:38:52.935Z,42.78
2019-04-23T05:41:38.527Z,41.96
2019-04-23T05:44:29.969Z,41.72
2019-04-23T05:47:17.111Z,41.93
2019-04-23T05:50:15.541Z,41.45
2019-04-23T05:52:57.753Z,42.08
2019-04-23T05:55:43.032Z,41.84
2019-04-23T06:04:19.116Z,42.17
2019-04-23T06:09:59.199Z,42.42
2019-04-23T06:12:47.212Z,43.01
2019-04-23T06:15:36.966Z,43.03
2019-04-23T06:18:34.760Z,42.00
2019-04-23T06:21:31.281Z,41.47
2019-04-23T06:24:16.995Z,42.74
2019-04-23T06:27:00.977Z,41.94
2019-04-23T06:29:43.316Z,42.06
2019-04-23T06:32:41.351Z,42.45
2019-04-23T06:35:32.012Z,41.57
2019-04-23T06:41:09.877Z,40.23
2019-04-23T06:44:14.360Z,39.75
2019-04-23T06:47:00.307Z,39.98
2019-04-23T06:49:46.842Z,40.21
2019-04-23T06:52:26.547Z,39.57
2019-04-23T06:55:26.606Z,39.82
2019-04-23T06:58:24.134Z,39.21
2019-04-23T07:01:01.981Z,37.41
2019-04-23T07:03:50.690Z,37.53
2019-04-23T07:07:21.603Z,37.71
2019-04-23T07:09:35.249Z,38.21
2019-04-23T07:12:23.927Z,37.65
2019-04-23T07:15:16.405Z,37.58
2019-04-23T07:18:00.661Z,37.31
2019-04-23T07:20:51.195Z,37.09
2019-04-23T07:23:45.629Z,37.46
2019-04-23T07:29:16.021Z,36.77
2019-04-23T07:32:05.410Z,37.53
2019-04-23T07:35:00.979Z,37.18
2019-04-23T07:37:49.957Z,36.85
2019-04-23T07:40:57.418Z,36.85
2019-04-23T07:43:40.418Z,36.24
2019-04-23T07:46:40.753Z,36.88
2019-04-23T07:49:26.555Z,37.13
2019-04-23T07:52:20.125Z,36.48
2019-04-23T07:58:01.981Z,35.26
2019-04-23T08:03:39.578Z,32.93
2019-04-23T08:06:19.279Z,33.79
2019-04-23T08:09:09.123Z,33.82
2019-04-23T08:11:56.657Z,33.00
2019-04-23T08:14:56.601Z,32.92
2019-04-23T08:17:37.467Z,32.69
2019-04-23T08:20:30.254Z,32.06
2019-04-23T08:23:25.782Z,30.89
2019-04-23T08:26:50.239Z,30.85
2019-04-23T08:29:21.648Z,30.98
2019-04-23T08:32:16.828Z,30.63
2019-04-23T08:35:03.157Z,30.96
2019-04-23T08:38:04.561Z,31.08
2019-04-23T08:40:43.191Z,30.40
2019-04-23T08:43:42.858Z,30.06
2019-04-23T08:47:10.342Z,28.85
2019-04-23T08:52:32.597Z,29.10
2019-04-23T08:58:15.594Z,29.58
2019-04-23T09:01:07.769Z,30.01
2019-04-23T09:03:47.185Z,30.87
2019-04-23T09:06:37.081Z,30.57
2019-04-23T09:09:37.953Z,31.10
2019-04-23T09:12:23.980Z,30.61
2019-04-23T09:15:15.355Z,31.28
2019-04-23T09:18:03.013Z,30.96
2019-04-23T09:20:44.528Z,31.01
2019-04-23T09:23:45.144Z,31.81
2019-04-23T09:26:25.957Z,32.49
2019-04-23T09:29:19.809Z,31.89
2019-04-23T09:32:23.912Z,31.67
2019-04-23T09:35:29.287Z,31.23
2019-04-23T09:38:44.618Z,31.27
2019-04-23T09:41:39.549Z,31.68
2019-04-23T09:45:00.047Z,30.93
2019-04-23T09:48:18.228Z,30.55
2019-04-23T09:53:57.689Z,29.06
2019-04-23T09:59:31.029Z,29.46
2019-04-23T10:02:08.369Z,29.22
2019-04-23T10:04:52.951Z,29.02
2019-04-23T10:07:40.505Z,28.34
2019-04-23T10:10:16.702Z,28.76
2019-04-23T10:13:06.012Z,29.02
2019-04-23T10:15:55.429Z,29.53
2019-04-23T10:18:42.836Z,28.77
2019-04-23T10:21:31.177Z,28.86
2019-04-23T10:24:19.345Z,28.52
2019-04-23T10:27:08.192Z,28.42
2019-04-23T10:29:56.414Z,28.02
2019-04-23T10:32:45.206Z,28.48
2019-04-23T10:35:43.240Z,27.58
2019-04-23T10:38:22.571Z,27.71
2019-04-23T10:41:12.019Z,27.51
2019-04-23T10:44:09.038Z,27.37
2019-04-23T10:47:45.178Z,26.41
2019-04-23T10:50:51.481Z,27.63
2019-04-23T10:56:44.830Z,27.66
2019-04-23T10:59:38.966Z,27.36
2019-04-23T11:05:15.859Z,25.58
2019-04-23T11:08:02.354Z,26.09
2019-04-23T11:10:58.955Z,26.18
2019-04-23T11:13:53.034Z,25.94
2019-04-23T11:16:56.696Z,26.64
2019-04-23T11:19:40.427Z,25.65
2019-04-23T11:22:38.919Z,25.46
2019-04-23T11:25:20.492Z,25.48
2019-04-23T11:28:03.210Z,25.86
2019-04-23T11:33:46.377Z,26.04
2019-04-23T11:39:28.871Z,25.52
2019-04-23T11:42:11.538Z,25.65
2019-04-23T11:51:07.234Z,25.86
2019-04-23T11:53:35.095Z,26.32
2019-04-23T11:56:51.516Z,26.23
2019-04-23T11:59:07.545Z,26.06
2019-04-23T12:05:32.330Z,26.52
2019-04-23T12:08:50.189Z,26.62
2019-04-23T12:11:53.472Z,26.58
2019-04-23T12:20:28.642Z,26.18
2019-04-23T12:23:08.973Z,25.03
2019-04-23T12:25:47.600Z,24.67
2019-04-23T12:28:40.211Z,25.94
2019-04-23T12:31:32.729Z,25.94
2019-04-23T12:34:25.758Z,25.05
2019-04-23T12:37:04.131Z,24.78
2019-04-23T12:40:07.068Z,24.53
2019-04-23T12:48:41.312Z,24.28
2019-04-23T12:51:26.590Z,23.38
2019-04-23T12:54:07.682Z,23.96
2019-04-23T12:57:20.761Z,23.77
2019-04-23T12:59:44.337Z,24.23
2019-04-23T13:08:26.875Z,24.30
2019-04-23T13:11:07.946Z,24.88
2019-04-23T13:13:51.922Z,24.19
2019-04-23T13:16:44.663Z,24.06
2019-04-23T13:19:40.156Z,24.49
2019-04-23T13:22:27.881Z,24.17
2019-04-23T13:25:34.570Z,22.47
2019-04-23T13:28:21.723Z,23.84
2019-04-23T13:31:08.596Z,23.49
2019-04-23T13:33:49.970Z,22.81
2019-04-23T13:36:45.364Z,23.36
2019-04-23T13:39:40.401Z,23.87
2019-04-23T13:42:33.695Z,23.34
2019-04-23T13:45:35.668Z,23.53
2019-04-23T13:48:06.144Z,24.54
2019-04-23T13:53:53.390Z,24.38
2019-04-23T13:59:30.555Z,24.17
2019-04-23T14:02:23.528Z,23.72
2019-04-23T14:05:21.661Z,24.34
2019-04-23T14:08:13.830Z,24.87
2019-04-23T14:10:51.911Z,24.48
2019-04-23T14:19:16.282Z,24.80
2019-04-23T14:28:06.747Z,24.76
2019-04-23T14:30:56.005Z,24.24
2019-04-23T14:36:27.026Z,25.20
2019-04-23T14:39:24.441Z,24.52
2019-04-23T14:42:21.717Z,24.75
2019-04-23T14:45:13.955Z,23.72
2019-04-23T14:53:30.241Z,25.24
2019-04-23T14:56:20.134Z,25.58
2019-04-23T15:01:58.237Z,24.49
2019-04-23T15:04:48.220Z,24.20
2019-04-23T15:07:37.595Z,25.50
2019-04-23T15:13:16.897Z,24.91
2019-04-23T15:19:22.073Z,24.27
2019-04-23T15:22:04.795Z,25.05
2019-04-23T15:24:50.147Z,25.43
2019-04-23T15:28:05.317Z,25.37
2019-04-23T15:30:17.672Z,24.47
2019-04-23T15:36:23.914Z,25.24
2019-04-23T15:39:08.813Z,25.33
2019-04-23T15:41:49.043Z,25.05
2019-04-23T15:44:21.823Z,24.02
2019-04-23T15:50:17.577Z,25.34
2019-04-23T15:52:56.457Z,24.85
2019-04-23T15:55:50.202Z,24.86
2019-04-23T15:58:48.545Z,25.48
2019-04-23T16:01:29.346Z,25.59
2019-04-23T16:03:49.688Z,25.31
2019-04-23T16:06:38.876Z,25.58
2019-04-23T16:10:04.351Z,25.78
2019-04-23T16:12:51.642Z,25.92
2019-04-23T16:15:37.320Z,26.02
2019-04-23T16:18:37.453Z,25.75
2019-04-23T16:21:31.877Z,26.12
2019-04-23T16:24:18.035Z,26.36
2019-04-23T16:30:00.227Z,26.49
2019-04-23T16:32:58.730Z,26.29
2019-04-23T16:36:08.795Z,25.96
2019-04-23T16:38:52.054Z,25.91
2019-04-23T16:41:42.270Z,25.76
2019-04-23T16:44:39.351Z,25.38
2019-04-23T16:47:21.814Z,26.43
2019-04-23T16:50:13.075Z,25.62
2019-04-23T16:52:59.959Z,25.09
2019-04-23T16:55:55.295Z,25.54
2019-04-23T17:01:22.911Z,25.29
2019-04-23T17:04:19.587Z,25.58
2019-04-23T17:07:03.793Z,25.74
2019-04-23T17:10:00.682Z,25.81
2019-04-23T17:12:47.436Z,26.26
2019-04-23T17:15:34.567Z,26.17
2019-04-23T17:18:26.255Z,26.51
2019-04-23T17:21:24.035Z,26.06
2019-04-23T17:24:09.485Z,26.34
2019-04-23T17:27:11.090Z,26.49
2019-04-23T17:32:28.252Z,26.35
2019-04-23T17:35:30.114Z,26.63
2019-04-23T17:38:42.331Z,26.95
2019-04-23T17:47:08.719Z,27.01
2019-04-23T17:49:59.706Z,26.98
2019-04-23T17:52:47.393Z,26.89
2019-04-23T17:55:34.906Z,27.23
2019-04-23T17:58:24.775Z,26.81
2019-04-23T18:01:20.136Z,27.85
2019-04-23T18:04:23.962Z,27.63
2019-04-23T18:09:51.383Z,28.46
2019-04-23T18:15:21.289Z,29.00
2019-04-23T18:18:10.076Z,29.06
2019-04-23T18:24:38.483Z,29.02
2019-04-23T18:27:23.343Z,29.45
2019-04-23T18:30:26.456Z,29.25
2019-04-23T18:36:19.595Z,29.24
2019-04-23T18:39:12.384Z,29.49
2019-04-23T18:45:00.321Z,29.50
2019-04-23T18:47:47.313Z,29.72
2019-04-23T18:50:48.182Z,29.84
2019-04-23T18:53:32.367Z,30.11
2019-04-23T18:56:31.287Z,29.86
2019-04-23T18:59:24.884Z,29.95
2019-04-23T19:02:31.778Z,29.96
2019-04-23T19:14:27.661Z,30.17
2019-04-23T19:17:35.779Z,30.62
2019-04-23T19:19:55.274Z,30.28
2019-04-23T19:22:55.231Z,30.09
2019-04-23T19:28:44.466Z,30.41
2019-04-23T19:31:28.640Z,30.40
2019-04-23T19:34:21.313Z,30.68
2019-04-23T19:37:15.369Z,30.39
2019-04-23T19:39:55.129Z,30.41
2019-04-23T19:42:44.818Z,30.96
2019-04-23T19:45:40.576Z,30.28
2019-04-23T19:48:25.299Z,30.48
2019-04-23T19:51:09.559Z,31.13
2019-04-23T19:54:09.452Z,30.80
2019-04-23T20:02:38.590Z,30.40
2019-04-23T20:05:13.783Z,30.13
2019-04-23T20:10:54.564Z,29.90
2019-04-23T20:13:52.669Z,29.89
2019-04-23T20:16:48.956Z,29.93
2019-04-23T20:19:30.138Z,30.17
2019-04-23T20:22:16.705Z,29.70
2019-04-23T20:31:45.026Z,29.21
2019-04-23T20:32:05.551Z,29.15
2019-04-23T20:37:06.521Z,29.63
2019-04-23T20:39:52.463Z,29.77
2019-04-23T20:42:36.617Z,29.27
2019-04-23T20:45:35.016Z,29.61
2019-04-23T20:48:16.058Z,29.93
2019-04-23T20:51:00.473Z,29.85
2019-04-23T20:54:02.264Z,29.84
2019-04-23T20:56:55.983Z,29.75
2019-04-23T20:59:45.511Z,30.13
2019-04-23T21:02:54.072Z,29.60
2019-04-23T21:05:27.700Z,29.33
2019-04-23T21:10:55.690Z,29.43
2019-04-23T21:14:10.816Z,29.98
2019-04-23T21:16:41.252Z,30.04
2019-04-23T21:19:42.055Z,29.71
2019-04-23T21:22:18.840Z,29.79
2019-04-23T21:25:08.310Z,29.83
2019-04-23T21:36:49.515Z,30.26
2019-04-23T21:45:56.814Z,30.23
2019-04-23T21:49:01.919Z,30.60
2019-04-23T21:54:25.741Z,30.61
2019-04-23T21:57:11.712Z,30.66
2019-04-23T21:59:59.178Z,31.00
2019-04-23T22:02:54.729Z,31.04
2019-04-23T22:06:10.093Z,31.08
2019-04-23T22:08:28.980Z,31.09
2019-04-23T22:11:42.873Z,31.35
2019-04-23T22:14:10.269Z,31.22
2019-04-23T22:17:04.749Z,31.23
2019-04-23T22:19:55.620Z,31.16
2019-04-23T22:22:51.172Z,31.11
2019-04-23T22:25:31.691Z,31.42
2019-04-23T22:28:20.019Z,31.23
2019-04-23T22:31:12.347Z,31.20
2019-04-23T22:34:04.937Z,31.15
2019-04-23T22:36:48.277Z,31.11
2019-04-23T22:39:31.757Z,31.40
2019-04-23T22:42:41.294Z,31.30
2019-04-23T22:45:27.072Z,31.26
2019-04-23T22:48:04.530Z,31.25
2019-04-23T22:51:04.859Z,31.14
2019-04-23T22:53:41.778Z,31.32
2019-04-23T22:56:35.090Z,31.16
2019-04-23T23:02:35.027Z,31.25
2019-04-23T23:05:37.469Z,31.30
2019-04-23T23:10:56.635Z,31.43
2019-04-23T23:14:01.076Z,31.58
2019-04-23T23:16:27.801Z,31.58
2019-04-23T23:25:06.523Z,31.57
2019-04-23T23:30:52.004Z,31.73
2019-04-23T23:36:20.512Z,32.07
2019-04-23T23:39:22.700Z,32.70
2019-04-23T23:41:57.197Z,33.23
2019-04-23T23:47:28.842Z,36.57
2019-04-23T23:50:50.160Z,35.99
2019-04-23T23:53:23.337Z,36.45
2019-04-23T23:56:10.864Z,36.53
2019-04-23T23:58:58.300Z,37.02
